Terminal Aerodrome Forecast
Issued by NWS Wichita, KS

Home | Current Version | Previous Version | Text Only | Print | Product List | Glossary On
Versions: 1 2 3 4 5 6 7 8 9 10 11 12 13 14 15 16 17 18 19 20 21 22 23 24 25
000
FTUS43 KICT 162339
TAFICT
TAF
KICT 162339Z 1700/1724 28006KT P6SM OVC010
      TEMPO 1700/1704 OVC008
     FM171000 32006KT P6SM OVC015
     FM171200 32005KT P6SM OVC025
     FM171400 32006KT P6SM BKN035
     FM172000 31005KT P6SM SCT150=

USA.gov is the U.S. government's official web portal to all federal, state and local government web resources and services.